Time;durP1;ratioP1;P1;durP2;ratioP2;P2;SDS_P1;SDS_P2;PMS_P1;PMS_P2;Temp;Humidity;BMP_temperature;BMP_pressure;BME280_temperature;BME280_humidity;BME280_pressure;Samples;Min_cycle;Max_cycle;Signal;HPM_P1;HPM_P2
2022/04/28 00:00:58;;;;;;;22.52;6.40;;;;;;;4.94;78.19;102691.84;5011343;28;20045;-75
2022/04/28 00:03:24;;;;;;;20.85;7.18;;;;;;;4.91;77.83;102697.25;5012551;28;20026;-75
2022/04/28 00:05:49;;;;;;;20.00;7.82;;;;;;;4.90;77.85;102701.69;5012069;28;20049;-75
2022/04/28 00:08:14;;;;;;;18.50;6.57;;;;;;;4.89;78.52;102702.59;5012546;28;20029;-75
2022/04/28 00:10:40;;;;;;;20.25;6.82;;;;;;;4.87;77.87;102707.06;5012681;28;20033;-75
2022/04/28 00:13:07;;;;;;;27.05;8.73;;;;;;;4.85;78.34;102708.88;5011716;28;20064;-75
2022/04/28 00:15:33;;;;;;;20.48;7.57;;;;;;;4.83;78.21;102705.38;5012389;28;20371;-75
2022/04/28 00:17:58;;;;;;;21.25;7.40;;;;;;;4.83;78.57;102710.72;5023164;28;20036;-75
2022/04/28 00:20:24;;;;;;;20.20;6.03;;;;;;;4.83;77.92;102709.81;5030759;28;20029;-75
2022/04/28 00:22:50;;;;;;;20.73;7.07;;;;;;;4.81;78.58;102715.19;5031934;28;20055;-75
2022/04/28 00:25:15;;;;;;;21.92;7.15;;;;;;;4.76;78.46;102710.84;5031972;28;20021;-75
2022/04/28 00:27:40;;;;;;;20.23;6.93;;;;;;;4.71;78.23;102708.28;5031825;28;20029;-75
2022/04/28 00:30:07;;;;;;;21.55;7.65;;;;;;;4.68;78.77;102711.00;5030457;28;20033;-75
2022/04/28 00:32:32;;;;;;;21.73;7.20;;;;;;;4.63;78.76;102702.22;5031508;28;20075;-75
2022/04/28 00:34:57;;;;;;;18.95;6.50;;;;;;;4.62;78.79;102711.13;5031632;28;20053;-75
2022/04/28 00:37:23;;;;;;;19.65;6.88;;;;;;;4.60;78.90;102707.59;5031458;28;20116;-75
2022/04/28 00:39:49;;;;;;;19.65;6.82;;;;;;;4.54;78.84;102709.47;5030320;28;20034;-75
2022/04/28 00:42:16;;;;;;;19.98;7.25;;;;;;;4.50;79.09;102699.78;5031784;28;20029;-75
2022/04/28 00:44:42;;;;;;;17.10;6.72;;;;;;;4.46;79.41;102699.88;5022636;28;20041;-75
2022/04/28 00:47:09;;;;;;;18.88;6.63;;;;;;;4.44;79.42;102697.22;5015633;28;20480;-75
2022/04/28 00:52:19;;;;;;;18.15;7.43;;;;;;;4.39;79.66;102699.06;5031719;28;20106;-75
2022/04/28 00:54:45;;;;;;;20.85;7.35;;;;;;;4.36;79.74;102700.03;5031757;28;20025;-75
2022/04/28 00:57:12;;;;;;;18.95;7.05;;;;;;;4.34;79.92;102691.19;5031590;28;20052;-75
2022/04/28 00:59:39;;;;;;;19.35;6.65;;;;;;;4.33;79.88;102692.09;5031597;28;20116;-75
2022/04/28 01:02:07;;;;;;;20.05;6.15;;;;;;;4.31;80.10;102695.69;5031508;28;20101;-75
2022/04/28 01:04:33;;;;;;;19.63;6.97;;;;;;;4.28;79.97;102693.94;5029946;28;20040;-76
2022/04/28 01:06:58;;;;;;;20.08;6.28;;;;;;;4.25;79.48;102690.47;5030959;28;20485;-76
2022/04/28 01:09:24;;;;;;;21.52;6.90;;;;;;;4.25;79.72;102698.47;5031311;28;20039;-76
2022/04/28 01:11:50;;;;;;;20.00;6.55;;;;;;;4.20;79.99;102694.09;5031088;28;20104;-76
2022/04/28 01:14:15;;;;;;;25.08;8.02;;;;;;;4.22;80.51;102695.81;5031229;28;20022;-76
2022/04/28 01:16:40;;;;;;;20.42;7.53;;;;;;;4.20;80.21;102694.09;5030986;28;20036;-76
2022/04/28 01:19:06;;;;;;;24.75;7.60;;;;;;;4.16;80.71;102700.38;5029878;28;20021;-76
2022/04/28 01:21:31;;;;;;;24.50;7.35;;;;;;;4.14;80.57;102699.53;5030933;28;20038;-76
2022/04/28 01:23:58;;;;;;;21.90;8.18;;;;;;;4.10;80.17;102703.13;5027742;28;20530;-76
2022/04/28 01:26:27;;;;;;;18.58;6.80;;;;;;;4.09;80.18;102704.03;5015177;28;20033;-76
2022/04/28 01:28:52;;;;;;;18.73;6.95;;;;;;;4.07;80.43;102696.97;5015292;28;20025;-76
2022/04/28 01:31:17;;;;;;;20.17;7.18;;;;;;;4.03;80.49;102706.78;5015149;28;20026;-76
2022/04/28 01:33:43;;;;;;;18.77;7.20;;;;;;;4.02;80.55;102705.88;5015341;28;20030;-76
2022/04/28 01:36:09;;;;;;;19.67;7.53;;;;;;;4.01;80.46;102703.25;5013785;28;20030;-76
2022/04/28 01:38:34;;;;;;;18.05;6.90;;;;;;;3.99;80.45;102705.94;5015109;28;20512;-76
2022/04/28 01:40:59;;;;;;;21.80;7.20;;;;;;;3.99;80.87;102705.06;5014901;28;20120;-76
2022/04/28 01:43:24;;;;;;;24.48;8.07;;;;;;;3.98;80.52;102708.63;5015132;28;20033;-76
2022/04/28 01:45:50;;;;;;;20.77;8.07;;;;;;;3.96;80.77;102700.69;5014791;28;20037;-76
2022/04/28 01:48:15;;;;;;;19.63;7.18;;;;;;;3.95;80.80;102698.03;5027991;28;20033;-76
2022/04/28 01:50:40;;;;;;;18.02;6.95;;;;;;;3.94;80.48;102701.59;5034486;28;20120;-76
2022/04/28 01:55:50;;;;;;;22.70;7.82;;;;;;;3.88;81.08;102694.63;5023933;28;20040;-76
2022/04/28 01:58:15;;;;;;;20.80;7.30;;;;;;;3.85;80.46;102703.50;5014706;28;20034;-76
2022/04/28 02:00:41;;;;;;;21.67;7.57;;;;;;;3.82;81.00;102692.94;5014596;28;20022;-76
2022/04/28 02:03:07;;;;;;;19.95;7.43;;;;;;;3.80;80.96;102701.81;5013447;28;20022;-76
2022/04/28 02:05:32;;;;;;;22.90;7.10;;;;;;;3.80;80.97;102700.03;5012821;28;20500;-76
2022/04/28 02:07:57;;;;;;;23.25;7.68;;;;;;;3.77;81.05;102705.41;5014386;28;20034;-76
2022/04/28 02:10:23;;;;;;;20.83;6.78;;;;;;;3.79;80.61;102703.63;5013140;28;20038;-76
2022/04/28 02:12:48;;;;;;;22.98;8.25;;;;;;;3.80;80.84;102710.66;5014346;28;20465;-76
2022/04/28 02:15:13;;;;;;;21.20;7.78;;;;;;;3.79;81.04;102703.63;5013012;28;20065;-76
2022/04/28 02:17:40;;;;;;;22.15;6.88;;;;;;;3.77;80.45;102705.41;5021744;28;20092;-76
2022/04/28 02:20:07;;;;;;;22.48;7.82;;;;;;;3.75;81.03;102703.66;5033216;28;20030;-76
2022/04/28 02:22:33;;;;;;;21.10;7.93;;;;;;;3.75;80.61;102707.22;5033826;28;20068;-76
2022/04/28 02:24:58;;;;;;;19.67;7.43;;;;;;;3.75;81.21;102706.31;5034090;28;20478;-76
2022/04/28 02:27:24;;;;;;;23.15;7.70;;;;;;;3.73;81.15;102708.13;5033757;28;20060;-76
2022/04/28 02:29:50;;;;;;;20.33;7.10;;;;;;;3.72;81.24;102701.94;5034219;28;20033;-76
2022/04/28 02:32:15;;;;;;;19.95;7.65;;;;;;;3.71;81.43;102694.88;5033718;28;20025;-76
2022/04/28 02:34:41;;;;;;;21.42;6.97;;;;;;;3.68;81.19;102705.53;5033853;28;20044;-76
2022/04/28 02:37:06;;;;;;;23.25;7.82;;;;;;;3.64;81.62;102699.38;5031417;28;20021;-76
2022/04/28 02:39:32;;;;;;;22.23;7.75;;;;;;;3.63;81.30;102702.06;5033779;28;20105;-76
2022/04/28 02:41:58;;;;;;;21.77;7.65;;;;;;;3.62;81.19;102698.53;5033670;28;20476;-76
2022/04/28 02:44:23;;;;;;;19.20;7.35;;;;;;;3.61;81.13;102698.56;5029179;28;20026;-76
2022/04/28 02:46:48;;;;;;;20.27;7.68;;;;;;;3.60;81.09;102694.13;5014866;28;20025;-76
2022/04/28 02:49:15;;;;;;;20.48;7.65;;;;;;;3.58;81.46;102693.28;5033486;28;20029;-76
2022/04/28 02:51:41;;;;;;;20.75;7.80;;;;;;;3.57;81.85;102692.38;5033679;28;20048;-76
2022/04/28 02:54:06;;;;;;;20.13;7.28;;;;;;;3.56;81.67;102700.38;5032224;28;20026;-76
2022/04/28 02:56:32;;;;;;;23.35;7.97;;;;;;;3.54;81.96;102697.75;5033298;28;20022;-76
2022/04/28 02:58:57;;;;;;;28.52;8.52;;;;;;;3.53;81.63;102695.13;5033490;28;20041;-76
2022/04/28 03:01:23;;;;;;;24.10;8.50;;;;;;;3.53;81.59;102695.13;5033076;28;20183;-76
2022/04/28 03:03:49;;;;;;;24.55;7.32;;;;;;;3.52;81.98;102696.91;5033188;28;20104;-76
2022/04/28 03:11:43;;;;;;;19.92;8.02;;;;;;;3.48;81.84;102693.44;5033370;28;20098;-76
2022/04/28 03:14:09;;;;;;;22.83;7.43;;;;;;;3.49;81.84;102697.81;5033051;28;20033;-76
2022/04/28 03:16:35;;;;;;;20.85;8.05;;;;;;;3.48;81.76;102698.75;5033076;28;20056;-76
2022/04/28 03:19:01;;;;;;;20.55;7.47;;;;;;;3.49;81.72;102696.94;5033037;28;20461;-76
2022/04/28 03:21:26;;;;;;;26.08;8.25;;;;;;;3.50;81.41;102696.94;5032730;28;20054;-76
2022/04/28 03:23:51;;;;;;;19.23;7.45;;;;;;;3.50;80.99;102693.41;5030253;28;20033;-76
2022/04/28 03:26:16;;;;;;;24.85;7.47;;;;;;;3.50;81.11;102699.59;5012818;28;20105;-76
2022/04/28 03:28:42;;;;;;;25.60;7.88;;;;;;;3.49;81.20;102695.16;5011773;28;20030;-76
2022/04/28 03:31:08;;;;;;;20.17;6.85;;;;;;;3.46;81.30;102695.22;5011570;28;20033;-76
2022/04/28 03:33:34;;;;;;;20.88;8.57;;;;;;;3.42;81.51;102693.47;5011515;28;20025;-76
2022/04/28 03:35:59;;;;;;;23.48;8.85;;;;;;;3.39;81.80;102692.66;5012800;28;20037;-76
2022/04/28 03:38:24;;;;;;;22.33;7.60;;;;;;;3.36;82.00;102692.72;5012744;28;20030;-76
2022/04/28 03:40:49;;;;;;;20.13;7.75;;;;;;;3.36;82.11;102701.56;5013041;28;20026;-76
2022/04/28 03:43:15;;;;;;;20.45;7.13;;;;;;;3.36;81.50;102698.03;5013071;28;20123;-76
2022/04/28 03:45:41;;;;;;;19.60;7.68;;;;;;;3.35;82.13;102704.22;5012731;28;20279;-76
2022/04/28 03:48:08;;;;;;;23.67;8.25;;;;;;;3.33;81.91;102701.59;5023153;28;20038;-76
2022/04/28 03:50:33;;;;;;;23.65;8.15;;;;;;;3.32;81.89;102702.47;5031209;28;20104;-76
2022/04/28 03:52:59;;;;;;;25.40;9.02;;;;;;;3.30;81.50;102702.50;5030877;28;20568;-76
2022/04/28 03:55:25;;;;;;;21.73;7.63;;;;;;;3.27;81.39;102714.97;5025117;28;20046;-76
2022/04/28 03:57:51;;;;;;;22.38;8.55;;;;;;;3.24;82.07;102709.69;5012468;28;20235;-76
2022/04/28 04:00:17;;;;;;;22.48;7.72;;;;;;;3.26;81.74;102710.53;5012636;28;20038;-76
2022/04/28 04:02:43;;;;;;;22.15;7.78;;;;;;;3.25;81.83;102711.44;5012457;28;20034;-76
2022/04/28 04:05:09;;;;;;;22.85;8.82;;;;;;;3.26;81.43;102707.88;5012200;28;20068;-76
2022/04/28 04:07:38;;;;;;;25.95;8.55;;;;;;;3.24;81.65;102709.69;5011998;28;20076;-76
2022/04/28 04:10:07;;;;;;;17.75;7.10;;;;;;;3.22;82.05;102711.47;5012536;28;20438;-76
2022/04/28 04:12:32;;;;;;;19.73;8.00;;;;;;;3.22;81.93;102717.69;5010785;28;20485;-76
2022/04/28 04:14:58;;;;;;;20.25;8.02;;;;;;;3.21;82.26;102712.41;5011075;28;20124;-76
2022/04/28 04:17:23;;;;;;;21.63;8.40;;;;;;;3.20;81.67;102722.13;5016672;28;20030;-76
2022/04/28 04:19:48;;;;;;;21.33;7.95;;;;;;;3.19;81.85;102712.38;5031873;28;20063;-76
2022/04/28 04:22:14;;;;;;;21.48;8.23;;;;;;;3.20;82.11;102711.50;5031518;28;20029;-76
2022/04/28 04:24:42;;;;;;;21.33;7.97;;;;;;;3.18;82.18;102717.72;5031669;28;20397;-76
2022/04/28 04:27:09;;;;;;;22.20;7.93;;;;;;;3.15;82.45;102716.88;5031614;28;20140;-76
2022/04/28 04:29:35;;;;;;;25.90;9.23;;;;;;;3.14;82.81;102716.88;5031824;28;20440;-76
2022/04/28 04:32:18;;;;;;;21.83;8.20;;;;;;;3.13;83.04;102713.38;5031503;28;20083;-76
2022/04/28 04:34:45;;;;;;;26.90;9.18;;;;;;;3.14;83.01;102719.53;5031652;28;20488;-76
2022/04/28 04:37:11;;;;;;;26.52;9.05;;;;;;;3.12;82.68;102716.91;5031442;28;20457;-76
2022/04/28 04:39:37;;;;;;;20.02;7.90;;;;;;;3.12;83.07;102716.91;5031548;28;20037;-76
2022/04/28 04:42:03;;;;;;;26.08;9.70;;;;;;;3.14;83.21;102724.84;5031480;28;20079;-76
2022/04/28 04:44:28;;;;;;;25.20;9.63;;;;;;;3.13;83.39;102726.66;5025445;28;20033;-76
2022/04/28 04:46:53;;;;;;;24.75;9.35;;;;;;;3.15;83.28;102734.59;5012144;28;20402;-76
2022/04/28 04:49:18;;;;;;;24.90;9.48;;;;;;;3.17;83.85;102718.63;5030042;28;20082;-76
2022/04/28 04:51:44;;;;;;;25.52;9.82;;;;;;;3.21;83.57;102725.69;5029915;28;20079;-76
2022/04/28 04:54:10;;;;;;;21.60;8.32;;;;;;;3.25;83.23;102730.03;5031341;28;20026;-76
2022/04/28 04:56:36;;;;;;;26.75;9.35;;;;;;;3.30;83.39;102736.19;5030236;28;20025;-76
2022/04/28 04:59:02;;;;;;;22.13;8.90;;;;;;;3.33;83.65;102733.47;5030962;28;20031;-76
2022/04/28 05:01:27;;;;;;;30.55;9.98;;;;;;;3.38;83.65;102734.28;5031026;28;20029;-76
2022/04/28 05:03:52;;;;;;;28.02;9.88;;;;;;;3.42;83.63;102741.31;5031181;28;20108;-76
2022/04/28 05:06:17;;;;;;;27.02;10.25;;;;;;;3.43;84.17;102745.75;5030813;28;20060;-76
2022/04/28 05:08:43;;;;;;;22.80;8.73;;;;;;;3.47;84.40;102750.13;5031391;28;20037;-76
2022/04/28 05:11:08;;;;;;;26.00;10.57;;;;;;;3.54;84.85;102752.72;5020567;28;20469;-76
2022/04/28 05:13:33;;;;;;;25.80;9.32;;;;;;;3.56;84.91;102758.88;5011269;28;20029;-76
2022/04/28 05:15:58;;;;;;;25.25;10.80;;;;;;;3.61;85.09;102757.06;5010210;28;20065;-76
2022/04/28 05:18:27;;;;;;;22.05;9.18;;;;;;;3.69;85.31;102765.81;5009126;28;20030;-76
2022/04/28 05:20:52;;;;;;;26.35;9.50;;;;;;;3.72;84.95;102770.19;5011003;28;20037;-76
2022/04/28 05:23:18;;;;;;;24.58;9.68;;;;;;;3.78;85.65;102765.69;5011372;28;20034;-76
2022/04/28 05:25:43;;;;;;;26.83;11.60;;;;;;;3.87;85.24;102766.47;4993620;28;20083;-76
2022/04/28 05:28:08;;;;;;;22.63;10.10;;;;;;;3.95;85.99;102767.22;5011292;28;20462;-76
2022/04/28 05:30:34;;;;;;;24.88;10.57;;;;;;;4.04;85.64;102767.06;5011330;28;20026;-76
2022/04/28 05:32:59;;;;;;;26.08;10.30;;;;;;;4.09;85.38;102765.22;5011072;28;20034;-76
2022/04/28 05:35:24;;;;;;;23.55;10.13;;;;;;;4.19;85.80;102774.81;5011233;28;20096;-76
2022/04/28 05:37:50;;;;;;;27.13;11.73;;;;;;;4.26;85.27;102777.38;5011136;28;20692;-76
2022/04/28 05:40:15;;;;;;;25.77;10.88;;;;;;;4.36;85.33;102779.00;5009873;28;20034;-76
2022/04/28 05:45:45;;;;;;;24.30;10.25;;;;;;;4.58;84.85;102786.63;5011353;28;20044;-77
2022/04/28 05:48:12;;;;;;;25.65;10.88;;;;;;;4.69;84.79;102796.19;5023610;28;20132;-76
2022/04/28 05:50:38;;;;;;;32.25;11.30;;;;;;;4.78;83.46;102787.16;5031343;28;20029;-76
2022/04/28 05:53:04;;;;;;;28.42;11.75;;;;;;;4.88;84.14;102794.09;5030870;28;20405;-76
2022/04/28 05:55:29;;;;;;;23.33;10.77;;;;;;;4.97;83.68;102798.38;5012936;28;20030;-76
2022/04/28 05:57:59;;;;;;;25.88;10.82;;;;;;;5.09;82.35;102797.25;5029499;28;20029;-76
2022/04/28 06:00:25;;;;;;;25.23;11.10;;;;;;;5.19;83.25;102804.16;5029548;28;20056;-76
2022/04/28 06:02:50;;;;;;;26.02;11.90;;;;;;;5.25;83.37;102798.72;5030651;28;20108;-76
2022/04/28 06:05:15;;;;;;;25.75;11.18;;;;;;;5.34;83.01;102807.44;5030375;28;20134;-76
2022/04/28 06:07:40;;;;;;;27.45;11.80;;;;;;;5.41;81.89;102804.63;5030558;28;20029;-76
2022/04/28 06:10:06;;;;;;;28.48;12.45;;;;;;;5.51;81.61;102804.47;5030797;28;20029;-77
2022/04/28 06:12:31;;;;;;;26.92;10.75;;;;;;;5.61;81.85;102806.03;5031692;28;20477;-77
2022/04/28 06:14:57;;;;;;;26.92;12.52;;;;;;;5.70;82.86;102811.16;5016985;28;20040;-77
2022/04/28 06:17:22;;;;;;;25.45;11.27;;;;;;;5.78;81.70;102814.53;5020001;28;20478;-77
2022/04/28 06:19:47;;;;;;;29.08;11.48;;;;;;;5.87;81.09;102818.81;5034121;28;20047;-76
2022/04/28 06:22:13;;;;;;;27.17;12.63;;;;;;;5.97;81.00;102822.16;5033893;28;20037;-76
2022/04/28 06:24:38;;;;;;;25.58;12.38;;;;;;;6.06;82.25;102829.09;5032759;28;20044;-76
2022/04/28 06:27:04;;;;;;;29.27;11.65;;;;;;;6.14;79.58;102827.13;5033834;28;20033;-76
2022/04/28 06:29:29;;;;;;;28.48;11.88;;;;;;;6.21;78.79;102825.19;5034022;28;20021;-76
2022/04/28 06:31:54;;;;;;;25.70;10.73;;;;;;;6.28;79.46;102830.38;5033734;28;20436;-76
2022/04/28 06:34:19;;;;;;;26.70;11.30;;;;;;;6.39;80.61;102822.09;5034020;28;20454;-76
2022/04/28 06:36:45;;;;;;;29.65;11.57;;;;;;;6.49;79.21;102830.78;5033822;28;20025;-76
2022/04/28 06:39:10;;;;;;;28.80;11.45;;;;;;;6.57;79.07;102826.09;5033935;28;20514;-76
2022/04/28 06:41:35;;;;;;;36.28;11.93;;;;;;;6.65;78.77;102833.94;5033558;28;20048;-76
2022/04/28 06:44:01;;;;;;;25.77;11.23;;;;;;;6.71;77.55;102827.56;5032678;28;20029;-76
2022/04/28 06:46:26;;;;;;;26.55;10.23;;;;;;;6.76;76.70;102825.66;5013839;28;20034;-76
2022/04/28 06:48:51;;;;;;;24.65;10.85;;;;;;;6.82;76.26;102830.81;5031802;28;20029;-76
2022/04/28 06:51:17;;;;;;;27.08;11.25;;;;;;;6.89;76.84;102832.44;5032006;28;20032;-76
2022/04/28 06:53:42;;;;;;;25.92;10.68;;;;;;;6.98;77.30;102828.63;5032199;28;20142;-76
2022/04/28 06:56:08;;;;;;;23.77;10.45;;;;;;;7.04;75.57;102841.84;5032112;28;20057;-76
2022/04/28 06:58:34;;;;;;;23.45;9.75;;;;;;;7.11;75.28;102834.53;5015660;28;20384;-76
2022/04/28 07:00:59;;;;;;;24.65;10.68;;;;;;;7.17;74.80;102837.94;5033427;28;20530;-76
2022/04/28 07:03:25;;;;;;;27.83;10.45;;;;;;;7.27;75.70;102843.91;5033426;28;20021;-76
2022/04/28 07:05:50;;;;;;;30.02;10.90;;;;;;;7.37;75.83;102851.69;5032684;28;20476;-76
2022/04/28 07:08:15;;;;;;;25.40;10.55;;;;;;;7.45;75.74;102847.88;5033155;28;20040;-76
2022/04/28 07:10:41;;;;;;;24.77;9.68;;;;;;;7.52;74.83;102856.59;5033185;28;20378;-76
2022/04/28 07:13:09;;;;;;;26.80;9.88;;;;;;;7.58;73.31;102859.09;5033185;28;20032;-76
2022/04/28 07:15:36;;;;;;;22.83;9.93;;;;;;;7.63;72.74;102867.88;5033004;28;20542;-76
2022/04/28 07:18:03;;;;;;;25.98;11.00;;;;;;;7.70;72.48;102869.47;5014964;28;20055;-76
2022/04/28 07:20:29;;;;;;;27.35;11.18;;;;;;;7.77;72.21;102869.28;5033009;28;20410;-76
2022/04/28 07:22:55;;;;;;;24.83;11.77;;;;;;;7.85;73.49;102873.50;5031203;28;20120;-76
2022/04/28 07:25:20;;;;;;;26.42;10.10;;;;;;;7.93;71.95;102869.72;5018126;28;20037;-76
2022/04/28 07:27:45;;;;;;;25.50;10.63;;;;;;;7.98;70.61;102870.44;5013299;28;20022;-76
2022/04/28 07:30:11;;;;;;;27.55;10.13;;;;;;;8.05;71.41;102875.59;5013042;28;20022;-76
2022/04/28 07:32:36;;;;;;;24.42;10.55;;;;;;;8.12;72.07;102876.25;4995142;28;20030;-76
2022/04/28 07:35:02;;;;;;;25.50;10.95;;;;;;;8.17;69.89;102879.69;5012959;28;20038;-76
2022/04/28 07:37:27;;;;;;;23.10;10.38;;;;;;;8.27;71.75;102879.41;5012650;28;20116;-76
2022/04/28 07:39:52;;;;;;;24.00;10.63;;;;;;;8.34;71.99;102880.97;5011534;28;20029;-76
2022/04/28 07:42:17;;;;;;;24.85;10.40;;;;;;;8.38;69.97;102879.94;5011437;28;20088;-76
2022/04/28 07:44:43;;;;;;;24.25;10.80;;;;;;;8.45;70.35;102883.31;5011323;28;20489;-76
2022/04/28 07:47:08;;;;;;;25.38;10.85;;;;;;;8.51;70.20;102891.19;5016456;28;20026;-76
2022/04/28 07:49:36;;;;;;;24.15;10.20;;;;;;;8.57;70.12;102891.00;5032510;28;20388;-76
2022/04/28 07:52:01;;;;;;;26.65;10.80;;;;;;;8.65;69.32;102896.97;5032148;28;20037;-76
2022/04/28 07:54:27;;;;;;;22.77;9.55;;;;;;;8.73;70.47;102899.41;5030972;28;20028;-76
2022/04/28 07:56:52;;;;;;;24.90;10.82;;;;;;;8.83;70.74;102897.28;5032426;28;20029;-76
2022/04/28 07:59:17;;;;;;;25.20;10.65;;;;;;;8.89;70.99;102892.59;5032385;28;20037;-76
2022/04/28 08:01:43;;;;;;;24.38;10.48;;;;;;;9.00;72.36;102902.97;5030882;28;20115;-76
2022/04/28 08:04:08;;;;;;;25.17;10.13;;;;;;;9.04;69.03;102903.75;5030904;28;20037;-76
2022/04/28 08:06:33;;;;;;;23.58;9.35;;;;;;;9.09;66.69;102905.34;5030271;28;20057;-76
2022/04/28 08:08:58;;;;;;;26.92;9.82;;;;;;;9.18;69.07;102905.94;5032000;28;20071;-76
2022/04/28 08:11:24;;;;;;;25.15;10.43;;;;;;;9.24;68.20;102909.31;5032148;28;20049;-76
2022/04/28 08:13:49;;;;;;;28.80;10.80;;;;;;;9.33;69.19;102908.13;5024712;28;20032;-76
2022/04/28 08:16:14;;;;;;;28.98;11.25;;;;;;;9.40;68.98;102906.06;5012077;28;20030;-76
2022/04/28 08:18:40;;;;;;;29.92;11.45;;;;;;;9.48;70.23;102913.88;5027365;28;20029;-76
2022/04/28 08:21:08;;;;;;;24.27;10.65;;;;;;;9.50;67.14;102912.00;5031745;28;20515;-76
2022/04/28 08:23:34;;;;;;;24.40;10.38;;;;;;;9.58;68.33;102913.47;5031693;28;20057;-76
2022/04/28 08:25:59;;;;;;;24.60;10.43;;;;;;;9.67;68.55;102916.78;5031623;28;20072;-76
2022/04/28 08:28:25;;;;;;;27.63;11.30;;;;;;;9.72;67.31;102917.47;5030428;28;20079;-76
2022/04/28 08:30:51;;;;;;;23.42;8.90;;;;;;;9.77;67.53;102921.75;5030301;28;20033;-76
2022/04/28 08:33:17;;;;;;;26.13;11.02;;;;;;;9.84;67.80;102922.41;5031573;28;20036;-76
2022/04/28 08:35:42;;;;;;;27.85;11.45;;;;;;;9.82;63.30;102918.88;5030899;28;20021;-76
2022/04/28 08:38:07;;;;;;;31.95;10.73;;;;;;;9.84;64.58;102924.19;5031633;28;20025;-76
2022/04/28 08:40:33;;;;;;;24.13;10.65;;;;;;;9.84;64.29;102919.72;5031515;28;20423;-77
2022/04/28 08:43:02;;;;;;;29.35;10.25;;;;;;;9.91;66.25;102923.94;5030364;28;20051;-77
2022/04/28 08:45:28;;;;;;;27.73;10.57;;;;;;;9.97;64.61;102925.50;5018850;28;20036;-77
2022/04/28 08:47:58;;;;;;;26.95;11.13;;;;;;;10.01;64.17;102924.44;5021609;28;20025;-77
2022/04/28 08:50:23;;;;;;;24.08;10.35;;;;;;;10.09;65.96;102917.00;5031543;28;20476;-77
2022/04/28 08:52:49;;;;;;;26.25;10.70;;;;;;;10.20;65.19;102923.75;5029987;28;20029;-77
2022/04/28 08:55:16;;;;;;;26.55;10.52;;;;;;;10.23;64.01;102920.94;5031497;28;20026;-77
2022/04/28 08:57:41;;;;;;;32.97;11.77;;;;;;;10.36;66.79;102919.56;5031393;28;20022;-77
2022/04/28 09:00:07;;;;;;;26.05;9.95;;;;;;;10.41;62.87;102922.06;5031685;28;20029;-77
2022/04/28 09:02:33;;;;;;;30.30;10.65;;;;;;;10.44;63.79;102924.63;5031104;28;20100;-77
2022/04/28 09:05:04;;;;;;;24.83;10.25;;;;;;;10.46;64.70;102912.88;5029680;28;20049;-77
2022/04/28 09:07:41;;;;;;;26.83;11.50;;;;;;;10.49;64.21;102922.66;5031465;28;20041;-77
2022/04/28 09:10:25;;;;;;;26.50;10.77;;;;;;;10.55;66.18;102914.34;5030036;28;20033;-77
2022/04/28 09:12:57;;;;;;;27.25;11.00;;;;;;;10.61;65.25;102921.28;5031416;28;20021;-77
2022/04/28 09:15:22;;;;;;;31.05;11.60;;;;;;;10.64;64.27;102913.09;5031202;28;20040;-77
2022/04/28 09:17:47;;;;;;;28.55;11.88;;;;;;;10.70;63.98;102912.84;5031118;28;20025;-77
2022/04/28 09:20:16;;;;;;;29.80;11.38;;;;;;;10.73;63.07;102911.84;5031382;28;20034;-77
2022/04/28 09:22:43;;;;;;;25.90;11.93;;;;;;;10.78;64.66;102909.84;5029634;28;20066;-77
2022/04/28 09:25:09;;;;;;;23.58;11.00;;;;;;;10.81;63.54;102913.28;5031170;28;20033;-77
2022/04/28 09:27:35;;;;;;;27.83;10.90;;;;;;;10.87;63.86;102901.41;5013257;28;20079;-77
2022/04/28 09:30:00;;;;;;;23.50;11.45;;;;;;;10.97;62.66;102909.97;5031166;28;20315;-77
2022/04/28 09:32:26;;;;;;;26.33;11.55;;;;;;;10.99;61.34;102906.25;5029572;28;20033;-77
2022/04/28 09:34:53;;;;;;;26.08;11.52;;;;;;;11.04;62.57;102905.19;5016984;28;20022;-77
2022/04/28 09:37:21;;;;;;;31.13;10.95;;;;;;;11.11;61.74;102906.69;5009733;28;20382;-77
2022/04/28 09:42:40;;;;;;;29.42;11.40;;;;;;;11.12;59.67;102901.22;5011208;28;20036;-77
2022/04/28 09:45:08;;;;;;;25.25;11.23;;;;;;;11.21;61.27;102904.47;5010360;28;20393;-77
2022/04/28 09:47:34;;;;;;;28.55;9.45;;;;;;;11.31;62.70;102897.75;5022028;28;20049;-77
2022/04/28 09:49:59;;;;;;;25.15;11.25;;;;;;;11.36;62.74;102899.31;5034836;28;20029;-77
2022/04/28 09:52:24;;;;;;;23.48;10.63;;;;;;;11.43;61.15;102899.88;5033264;28;20041;-77
2022/04/28 09:54:51;;;;;;;25.02;11.07;;;;;;;11.48;59.88;102895.19;5033335;28;20041;-77
2022/04/28 09:57:20;;;;;;;28.92;11.48;;;;;;;11.58;61.94;102900.16;5034441;28;20113;-77
2022/04/28 09:59:47;;;;;;;24.45;11.13;;;;;;;11.60;58.41;102893.75;5033409;28;20025;-77
2022/04/28 10:02:18;;;;;;;26.40;11.50;;;;;;;11.64;58.14;102890.00;5034222;28;20025;-77
2022/04/28 10:04:45;;;;;;;24.10;10.45;;;;;;;11.75;61.53;102892.19;5033083;28;20031;-77
2022/04/28 10:07:14;;;;;;;24.67;10.52;;;;;;;11.75;59.02;102884.13;5033874;28;20493;-77
2022/04/28 10:09:41;;;;;;;27.00;10.93;;;;;;;11.82;59.04;102893.66;5034224;28;20032;-77
2022/04/28 10:12:08;;;;;;;23.35;9.98;;;;;;;11.86;57.55;102887.19;5033645;28;20029;-77
2022/04/28 10:14:38;;;;;;;29.90;10.73;;;;;;;11.91;57.50;102888.81;5019842;28;20040;-77
2022/04/28 10:17:05;;;;;;;24.10;9.57;;;;;;;11.91;57.66;102880.72;5015390;28;20029;-77
2022/04/28 10:19:34;;;;;;;26.63;11.27;;;;;;;11.93;58.77;102885.09;5032808;28;20071;-77
2022/04/28 10:22:11;;;;;;;25.02;10.30;;;;;;;11.98;58.62;102882.22;5034177;28;20025;-77
2022/04/28 10:33:19;;;;;;;25.10;10.75;;;;;;;12.20;59.48;102872.16;5033876;28;20076;-77
2022/04/28 10:35:48;;;;;;;24.63;9.70;;;;;;;12.22;56.74;102872.09;5032525;28;20017;-77
2022/04/28 10:38:26;;;;;;;24.85;10.00;;;;;;;12.22;56.35;102869.38;5033796;28;20030;-77
2022/04/28 10:41:06;;;;;;;21.95;10.02;;;;;;;12.31;56.46;102868.06;5033798;28;20045;-77
2022/04/28 10:43:31;;;;;;;22.58;9.93;;;;;;;12.36;56.55;102874.13;5033752;28;20082;-77
2022/04/28 10:46:01;;;;;;;25.90;10.82;;;;;;;12.48;59.40;102864.56;5016698;28;20397;-77
2022/04/28 10:48:29;;;;;;;23.38;9.63;;;;;;;12.45;55.59;102860.19;5027068;28;20037;-77
2022/04/28 10:51:11;;;;;;;22.67;9.77;;;;;;;12.54;57.90;102866.94;5033503;28;20392;-77
2022/04/28 10:53:55;;;;;;;23.60;10.02;;;;;;;12.54;57.69;102865.13;5016780;28;20400;-77
2022/04/28 10:56:21;;;;;;;24.13;10.30;;;;;;;12.48;53.14;102860.03;5032057;28;20017;-77
2022/04/28 10:58:46;;;;;;;24.85;10.07;;;;;;;12.48;53.16;102860.03;5031490;28;20536;-77
2022/04/28 11:01:25;;;;;;;21.65;10.60;;;;;;;12.59;57.69;102867.59;5033389;28;20112;-77
2022/04/28 11:03:56;;;;;;;22.88;11.25;;;;;;;12.59;54.41;102865.78;5033358;28;20025;-77
2022/04/28 11:06:28;;;;;;;23.08;10.25;;;;;;;12.65;55.21;102859.22;5031507;28;20041;-77
2022/04/28 11:08:57;;;;;;;26.00;9.95;;;;;;;12.72;55.20;102865.16;5033386;28;20071;-77
2022/04/28 11:11:26;;;;;;;27.10;11.32;;;;;;;12.76;55.10;102858.66;5033251;28;20026;-77
2022/04/28 11:13:57;;;;;;;24.88;10.25;;;;;;;12.77;55.10;102855.88;5033163;28;20472;-78
2022/04/28 11:16:24;;;;;;;28.58;11.23;;;;;;;12.80;55.08;102854.88;5031591;28;20017;-77
2022/04/28 11:18:49;;;;;;;25.42;10.98;;;;;;;12.80;53.91;102854.88;5031673;28;20121;-77
2022/04/28 11:21:15;;;;;;;24.42;11.23;;;;;;;12.86;54.81;102851.84;5031586;28;20548;-77
2022/04/28 11:23:45;;;;;;;26.33;11.02;;;;;;;12.92;54.27;102850.66;5033050;28;20029;-77
2022/04/28 11:26:12;;;;;;;28.65;11.23;;;;;;;13.07;55.28;102843.59;5032873;28;20033;-77
2022/04/28 11:28:39;;;;;;;28.85;12.27;;;;;;;13.15;55.02;102848.59;5032920;28;20056;-77
2022/04/28 11:31:15;;;;;;;27.00;12.25;;;;;;;13.17;54.00;102844.84;5032694;28;20025;-77
2022/04/28 11:33:43;;;;;;;25.63;11.55;;;;;;;13.26;56.17;102844.34;4994935;28;20098;-77
2022/04/28 11:36:15;;;;;;;24.00;10.73;;;;;;;13.32;55.77;102847.72;5013017;28;20481;-77
2022/04/28 11:38:48;;;;;;;25.67;11.18;;;;;;;13.38;55.19;102839.31;5011580;28;20025;-77
2022/04/28 11:41:13;;;;;;;23.98;11.10;;;;;;;13.41;54.50;102844.53;5012866;28;20050;-77